Time;durP1;ratioP1;P1;durP2;ratioP2;P2;SDS_P1;SDS_P2;PMS_P1;PMS_P2;Temp;Humidity;BMP_temperature;BMP_pressure;BME280_temperature;BME280_humidity;BME280_pressure;Samples;Min_cycle;Max_cycle;Signal;HPM_P1;HPM_P2
2021/11/23 00:00:52;;;;;;;;;;;;;;;21.90;53.88;101123.72;2074827;28;796;-55
2021/11/23 00:01:52;;;;;;;;;;;;;;;21.88;51.10;101128.28;2074995;28;843;-55
2021/11/23 00:02:54;;;;;;;;;;;;;;;21.95;50.91;101128.94;2074928;28;1910;-55
2021/11/23 00:03:54;;;;;;;;;;;;;;;21.85;51.73;101119.38;2074807;28;747;-55
2021/11/23 00:04:54;;;;;;;;;;;;;;;21.88;55.95;101125.56;2075053;28;687;-55
2021/11/23 00:05:55;;;;;;;;;;;;;;;21.90;49.86;101144.38;2075004;28;741;-55
2021/11/23 00:06:55;;;;;;;;;;;;;;;21.90;51.42;101130.91;2075079;28;791;-56
2021/11/23 00:07:55;;;;;;;;;;;;;;;21.92;52.68;101131.72;2075010;28;863;-56
2021/11/23 00:08:55;;;;;;;;;;;;;;;21.84;53.88;101132.00;2074996;28;1342;-56
2021/11/23 00:09:55;;;;;;;;;;;;;;;21.84;51.72;101131.09;2075004;28;768;-55
2021/11/23 00:10:55;;;;;;;;;;;;;;;21.91;51.63;101138.06;2075015;28;998;-56
2021/11/23 00:11:56;;;;;;;;;;;;;;;21.94;49.29;101139.78;2074581;28;835;-56
2021/11/23 00:12:56;;;;;;;;;;;;;;;21.90;51.75;101128.19;2075031;28;864;-55
2021/11/23 00:13:56;;;;;;;;;;;;;;;21.83;51.81;101132.94;2075037;28;839;-55
2021/11/23 00:14:56;;;;;;;;;;;;;;;21.80;53.17;101140.22;2075064;28;985;-56
2021/11/23 00:15:56;;;;;;;;;;;;;;;21.80;54.79;101141.13;2074985;28;835;-55
2021/11/23 00:16:56;;;;;;;;;;;;;;;21.74;49.88;101147.63;2074892;28;792;-55
2021/11/23 00:17:57;;;;;;;;;;;;;;;21.77;51.95;101152.91;2074924;28;1042;-56
2021/11/23 00:18:57;;;;;;;;;;;;;;;21.80;50.44;101161.81;2074847;28;978;-55
2021/11/23 00:19:57;;;;;;;;;;;;;;;21.76;54.80;101161.03;2074748;28;1203;-55
2021/11/23 00:20:57;;;;;;;;;;;;;;;21.75;50.44;101156.59;2075016;28;970;-56
2021/11/23 00:21:57;;;;;;;;;;;;;;;21.74;51.07;101161.09;2074833;28;820;-55
2021/11/23 00:22:58;;;;;;;;;;;;;;;21.76;52.01;101164.63;2074875;28;1966;-55
2021/11/23 00:23:58;;;;;;;;;;;;;;;21.69;52.47;101168.47;2074885;28;780;-55
2021/11/23 00:24:59;;;;;;;;;;;;;;;21.70;50.33;101169.34;2074642;28;1202;-56
2021/11/23 00:25:59;;;;;;;;;;;;;;;21.69;51.14;101171.16;2075009;28;994;-55
2021/11/23 00:26:59;;;;;;;;;;;;;;;21.72;53.78;101170.16;2075007;28;1105;-55
2021/11/23 00:28:00;;;;;;;;;;;;;;;21.74;53.13;101171.00;2074495;28;1034;-58
2021/11/23 00:29:00;;;;;;;;;;;;;;;21.69;52.21;101181.94;2074896;28;989;-56
2021/11/23 00:30:01;;;;;;;;;;;;;;;21.74;50.23;101181.78;2074944;28;985;-56
2021/11/23 00:31:02;;;;;;;;;;;;;;;21.72;51.41;101181.84;2074760;28;871;-55
2021/11/23 00:32:02;;;;;;;;;;;;;;;21.71;51.28;101188.16;2074862;28;986;-55
2021/11/23 00:33:03;;;;;;;;;;;;;;;21.68;54.30;101187.38;2074920;28;788;-56
2021/11/23 00:34:03;;;;;;;;;;;;;;;21.62;52.23;101189.34;2074760;28;906;-56
2021/11/23 00:35:03;;;;;;;;;;;;;;;21.64;51.12;101191.09;2074880;28;753;-55
2021/11/23 00:36:03;;;;;;;;;;;;;;;21.65;52.96;101192.88;2074720;28;859;-55
2021/11/23 00:37:04;;;;;;;;;;;;;;;21.69;50.63;101203.50;2074875;28;918;-56
2021/11/23 00:38:04;;;;;;;;;;;;;;;21.69;51.06;101190.03;2074907;28;1041;-56
2021/11/23 00:39:04;;;;;;;;;;;;;;;21.69;50.82;101205.31;2066847;28;1510;-55
2021/11/23 00:40:05;;;;;;;;;;;;;;;21.61;51.23;101213.63;2066817;28;850;-55
2021/11/23 00:41:05;;;;;;;;;;;;;;;21.64;53.58;101208.16;2066955;28;858;-55
2021/11/23 00:42:06;;;;;;;;;;;;;;;21.67;52.62;101208.06;2067068;28;978;-56
2021/11/23 00:43:06;;;;;;;;;;;;;;;21.64;51.07;101202.78;2068383;28;1894;-55
2021/11/23 00:44:06;;;;;;;;;;;;;;;21.66;51.13;101217.09;2068313;28;1334;-55
2021/11/23 00:45:07;;;;;;;;;;;;;;;21.66;50.88;101216.19;2068427;28;820;-55
2021/11/23 00:46:07;;;;;;;;;;;;;;;21.62;51.02;101223.50;2068272;28;1028;-55
2021/11/23 00:47:07;;;;;;;;;;;;;;;21.55;52.28;101224.59;2068469;28;860;-56
2021/11/23 00:48:07;;;;;;;;;;;;;;;21.55;52.86;101230.00;2068315;28;839;-55
2021/11/23 00:49:11;;;;;;;;;;;;;;;21.59;52.84;101226.28;2068421;28;827;-56
2021/11/23 00:50:12;;;;;;;;;;;;;;;21.61;50.46;101229.81;2068297;28;1044;-56
2021/11/23 00:51:13;;;;;;;;;;;;;;;21.59;51.20;101228.97;2068340;28;1025;-56
2021/11/23 00:52:13;;;;;;;;;;;;;;;21.49;53.16;101236.44;2068180;28;858;-56
2021/11/23 00:53:13;;;;;;;;;;;;;;;21.59;50.48;101240.63;2068348;28;816;-55
2021/11/23 00:54:13;;;;;;;;;;;;;;;21.59;52.49;101234.34;2068046;28;977;-55
2021/11/23 00:55:13;;;;;;;;;;;;;;;21.57;49.63;101237.09;2068083;28;962;-56
2021/11/23 00:56:14;;;;;;;;;;;;;;;21.47;53.29;101241.03;2068222;28;943;-55
2021/11/23 00:57:15;;;;;;;;;;;;;;;21.55;50.44;101240.78;2068189;28;1079;-55
2021/11/23 00:58:16;;;;;;;;;;;;;;;21.56;51.57;101238.00;2068220;28;1378;-55
2021/11/23 00:59:16;;;;;;;;;;;;;;;21.59;50.91;101237.06;2068232;28;843;-55
2021/11/23 01:00:16;;;;;;;;;;;;;;;21.59;49.88;101240.63;2067894;28;698;-56
2021/11/23 01:01:16;;;;;;;;;;;;;;;21.59;50.22;101240.63;2068267;28;824;-55
2021/11/23 01:02:16;;;;;;;;;;;;;;;21.58;50.52;101248.75;2068208;28;882;-56
2021/11/23 01:03:17;;;;;;;;;;;;;;;21.51;52.77;101247.19;2068012;28;1967;-55
2021/11/23 01:04:17;;;;;;;;;;;;;;;21.52;51.19;101247.13;2068251;28;859;-56
2021/11/23 01:05:18;;;;;;;;;;;;;;;21.57;50.16;101253.25;2068174;28;907;-55
2021/11/23 01:06:18;;;;;;;;;;;;;;;21.55;51.43;101252.41;2068144;28;1329;-56
2021/11/23 01:07:18;;;;;;;;;;;;;;;21.50;50.57;101258.91;2068249;28;982;-56
2021/11/23 01:08:18;;;;;;;;;;;;;;;21.57;51.09;101257.78;2068098;28;966;-56
2021/11/23 01:09:18;;;;;;;;;;;;;;;21.56;52.00;101258.72;2068243;28;1037;-56
2021/11/23 01:10:19;;;;;;;;;;;;;;;21.53;51.21;101261.50;2068167;28;824;-55
2021/11/23 01:11:20;;;;;;;;;;;;;;;21.50;50.70;101259.75;2067212;28;1145;-56
2021/11/23 01:12:20;;;;;;;;;;;;;;;21.52;51.00;101262.44;2067751;28;890;-57
2021/11/23 01:13:20;;;;;;;;;;;;;;;21.46;52.53;101260.81;2068043;28;915;-56
2021/11/23 01:14:21;;;;;;;;;;;;;;;21.59;50.47;101266.72;2068107;28;1891;-56
2021/11/23 01:15:21;;;;;;;;;;;;;;;21.58;49.78;101265.81;2068061;28;982;-55
2021/11/23 01:16:21;;;;;;;;;;;;;;;21.47;52.28;101273.38;2068090;28;901;-56
2021/11/23 01:17:21;;;;;;;;;;;;;;;21.51;50.13;101266.06;2068035;28;879;-56
2021/11/23 01:18:22;;;;;;;;;;;;;;;21.50;50.34;101272.38;2068104;28;836;-55
2021/11/23 01:19:23;;;;;;;;;;;;;;;21.55;51.39;101270.44;2067695;28;1022;-56
2021/11/23 01:20:23;;;;;;;;;;;;;;;21.53;50.39;101274.97;2067444;28;906;-56
2021/11/23 01:21:24;;;;;;;;;;;;;;;21.47;52.74;101273.38;2067531;28;851;-56
2021/11/23 01:22:24;;;;;;;;;;;;;;;21.43;51.97;101269.88;2067963;28;767;-56
2021/11/23 01:23:26;;;;;;;;;;;;;;;21.43;51.36;101274.38;2067995;28;1959;-55
2021/11/23 01:24:26;;;;;;;;;;;;;;;21.40;51.16;101275.34;2068112;28;796;-56
2021/11/23 01:25:26;;;;;;;;;;;;;;;21.39;51.45;101284.34;2067722;28;1005;-56
2021/11/23 01:26:26;;;;;;;;;;;;;;;21.47;50.59;101273.38;2067999;28;1005;-55
2021/11/23 01:27:26;;;;;;;;;;;;;;;21.42;52.56;101278.00;2068038;28;1010;-56
2021/11/23 01:28:28;;;;;;;;;;;;;;;21.41;52.18;101278.94;2067981;28;926;-56
2021/11/23 01:29:28;;;;;;;;;;;;;;;21.32;52.15;101277.38;2068064;28;860;-55
2021/11/23 01:30:29;;;;;;;;;;;;;;;21.34;52.59;101289.00;2067909;28;1014;-56
2021/11/23 01:31:29;;;;;;;;;;;;;;;21.39;51.51;101280.78;2068221;28;821;-55
2021/11/23 01:32:29;;;;;;;;;;;;;;;21.38;50.69;101287.13;2068015;28;899;-55
2021/11/23 01:33:29;;;;;;;;;;;;;;;21.38;51.58;101281.72;2067863;28;757;-56
2021/11/23 01:34:30;;;;;;;;;;;;;;;21.37;52.65;101298.81;2068001;28;916;-55
2021/11/23 01:35:30;;;;;;;;;;;;;;;21.42;51.60;101286.09;2067471;28;1539;-55
2021/11/23 01:36:30;;;;;;;;;;;;;;;21.37;51.61;101294.28;2067323;28;776;-55
2021/11/23 01:37:30;;;;;;;;;;;;;;;21.38;51.15;101293.38;2068040;28;840;-55
2021/11/23 01:38:31;;;;;;;;;;;;;;;21.43;51.27;101294.13;2071141;28;1473;-55
2021/11/23 01:39:31;;;;;;;;;;;;;;;21.44;50.67;101295.88;2075866;28;819;-55
2021/11/23 01:40:32;;;;;;;;;;;;;;;21.39;53.41;101300.53;2076066;28;867;-56
2021/11/23 01:41:32;;;;;;;;;;;;;;;21.37;51.50;101294.28;2076118;28;974;-56
2021/11/23 01:42:32;;;;;;;;;;;;;;;21.35;52.17;101295.28;2076027;28;918;-56
2021/11/23 01:43:32;;;;;;;;;;;;;;;21.38;53.89;101295.19;2076076;28;1894;-55
2021/11/23 01:44:33;;;;;;;;;;;;;;;21.37;51.32;101294.28;2075827;28;1116;-55
2021/11/23 01:45:34;;;;;;;;;;;;;;;21.37;52.31;101288.03;2076035;28;855;-54
2021/11/23 01:46:34;;;;;;;;;;;;;;;21.33;50.84;101296.22;2075998;28;1970;-55
2021/11/23 01:47:34;;;;;;;;;;;;;;;21.36;51.28;101294.34;2075884;28;1158;-54
2021/11/23 01:48:35;;;;;;;;;;;;;;;21.41;50.21;101297.81;2076030;28;819;-54
2021/11/23 01:49:35;;;;;;;;;;;;;;;21.44;50.18;101300.41;2075968;28;813;-54
2021/11/23 01:50:36;;;;;;;;;;;;;;;21.30;52.71;101301.69;2076052;28;895;-53
2021/11/23 01:51:36;;;;;;;;;;;;;;;21.42;50.73;101297.75;2075943;28;796;-53
2021/11/23 01:52:36;;;;;;;;;;;;;;;21.45;50.97;101305.75;2075832;28;780;-54
2021/11/23 01:53:37;;;;;;;;;;;;;;;21.55;49.94;101305.47;2075474;28;859;-54
2021/11/23 01:54:37;;;;;;;;;;;;;;;21.54;49.81;101295.63;2075665;28;814;-54
2021/11/23 01:55:40;;;;;;;;;;;;;;;21.59;49.89;101308.00;2075834;28;1286;-54
2021/11/23 01:56:40;;;;;;;;;;;;;;;21.58;50.13;101308.06;2075830;28;1094;-55
2021/11/23 01:57:42;;;;;;;;;;;;;;;21.50;51.69;101310.13;2075737;28;788;-55
2021/11/23 01:58:42;;;;;;;;;;;;;;;21.44;49.91;101303.97;2076045;28;803;-55
2021/11/23 01:59:42;;;;;;;;;;;;;;;21.51;50.77;101306.50;2075845;28;1061;-55
2021/11/23 02:00:45;;;;;;;;;;;;;;;21.53;50.61;101312.72;2075603;28;1095;-56
2021/11/23 02:01:45;;;;;;;;;;;;;;;21.51;50.95;101309.19;2075862;28;874;-55
2021/11/23 02:02:46;;;;;;;;;;;;;;;21.52;50.85;101316.34;2075855;28;847;-55
2021/11/23 02:03:46;;;;;;;;;;;;;;;21.52;50.90;101314.50;2075823;28;2029;-56
2021/11/23 02:04:46;;;;;;;;;;;;;;;21.45;51.11;101316.53;2075866;28;876;-55
2021/11/23 02:05:47;;;;;;;;;;;;;;;21.46;51.56;101314.72;2075674;28;934;-55
2021/11/23 02:06:47;;;;;;;;;;;;;;;21.44;52.97;101309.38;2075888;28;812;-55
2021/11/23 02:07:48;;;;;;;;;;;;;;;21.38;51.59;101314.06;2075975;28;1072;-55
2021/11/23 02:08:48;;;;;;;;;;;;;;;21.38;51.81;101319.47;2075492;28;752;-55
2021/11/23 02:09:49;;;;;;;;;;;;;;;21.35;52.53;101319.53;2075767;28;784;-55
2021/11/23 02:10:49;;;;;;;;;;;;;;;21.38;51.11;101322.16;2075840;28;1029;-55
2021/11/23 02:11:50;;;;;;;;;;;;;;;21.38;50.74;101325.72;2075626;28;1034;-56
2021/11/23 02:12:51;;;;;;;;;;;;;;;21.46;50.84;101325.50;2075846;28;804;-55
2021/11/23 02:13:51;;;;;;;;;;;;;;;21.50;50.10;101334.38;2075770;28;850;-55
2021/11/23 02:14:51;;;;;;;;;;;;;;;21.39;51.42;101332.88;2075168;28;954;-55
2021/11/23 02:15:53;;;;;;;;;;;;;;;21.42;50.30;101338.16;2075139;28;918;-55
2021/11/23 02:16:53;;;;;;;;;;;;;;;21.42;51.17;101326.53;2075033;28;1102;-55
2021/11/23 02:17:54;;;;;;;;;;;;;;;21.36;50.99;101340.16;2075726;28;994;-55
2021/11/23 02:18:54;;;;;;;;;;;;;;;21.35;52.32;101338.41;2075769;28;1120;-55
2021/11/23 02:19:54;;;;;;;;;;;;;;;21.33;51.52;101342.03;2075535;28;788;-55
2021/11/23 02:20:55;;;;;;;;;;;;;;;21.35;53.47;101339.28;2075653;28;1045;-55
2021/11/23 02:21:55;;;;;;;;;;;;;;;21.32;51.12;101334.88;2075721;28;969;-55
2021/11/23 02:22:56;;;;;;;;;;;;;;;21.33;52.89;101338.44;2075500;28;1886;-55
2021/11/23 02:23:58;;;;;;;;;;;;;;;21.35;51.80;101339.28;2075710;28;1146;-55
2021/11/23 02:24:58;;;;;;;;;;;;;;;21.30;51.82;101336.72;2075780;28;807;-55
2021/11/23 02:25:58;;;;;;;;;;;;;;;21.33;52.60;101338.44;2075539;28;832;-55
2021/11/23 02:27:01;;;;;;;;;;;;;;;21.23;53.35;101342.31;2075676;28;1018;-55
2021/11/23 02:28:01;;;;;;;;;;;;;;;21.23;51.40;101345.00;2075447;28;850;-55
2021/11/23 02:29:01;;;;;;;;;;;;;;;21.22;51.70;101352.22;2075612;28;1115;-55
2021/11/23 02:30:02;;;;;;;;;;;;;;;21.31;51.29;101342.97;2075660;28;1048;-55
2021/11/23 02:31:05;;;;;;;;;;;;;;;21.32;51.04;101351.03;2075639;28;1003;-55
2021/11/23 02:32:05;;;;;;;;;;;;;;;21.30;51.54;101346.59;2075621;28;881;-55
2021/11/23 02:33:05;;;;;;;;;;;;;;;21.21;52.81;101349.56;2075668;28;871;-55
2021/11/23 02:34:05;;;;;;;;;;;;;;;21.22;52.34;101346.84;2075276;28;779;-55
2021/11/23 02:35:06;;;;;;;;;;;;;;;21.12;53.84;101348.00;2075651;28;883;-56
2021/11/23 02:36:08;;;;;;;;;;;;;;;21.13;53.36;101348.00;2075531;28;844;-55
2021/11/23 02:37:08;;;;;;;;;;;;;;;21.13;53.54;101352.47;2075703;28;867;-55
2021/11/23 02:38:08;;;;;;;;;;;;;;;21.17;53.12;101357.75;2075144;28;1174;-55
2021/11/23 02:39:08;;;;;;;;;;;;;;;21.27;51.55;101350.28;2067538;28;985;-56
2021/11/23 02:40:09;;;;;;;;;;;;;;;21.23;52.32;101359.38;2067489;28;1056;-55
2021/11/23 02:41:12;;;;;;;;;;;;;;;21.24;51.34;101355.75;2067521;28;819;-55
2021/11/23 02:42:12;;;;;;;;;;;;;;;21.23;51.49;101355.78;2067415;28;831;-55
2021/11/23 02:43:12;;;;;;;;;;;;;;;21.27;51.18;101349.38;2067435;28;1961;-55
2021/11/23 02:44:13;;;;;;;;;;;;;;;21.28;51.63;101352.06;2067320;28;875;-55
2021/11/23 02:45:15;;;;;;;;;;;;;;;21.25;53.40;101365.59;2067482;28;970;-55
2021/11/23 02:46:16;;;;;;;;;;;;;;;21.22;51.48;101362.09;2067450;28;907;-55
2021/11/23 02:47:16;;;;;;;;;;;;;;;21.22;52.90;101356.72;2067211;28;1032;-55
2021/11/23 02:48:16;;;;;;;;;;;;;;;21.24;51.27;101362.94;2067331;28;773;-55
2021/11/23 02:49:19;;;;;;;;;;;;;;;21.23;53.29;101363.88;2067483;28;792;-55
2021/11/23 02:50:20;;;;;;;;;;;;;;;21.28;52.78;101370.00;2067388;28;1044;-55
2021/11/23 02:51:20;;;;;;;;;;;;;;;21.30;50.61;101370.84;2067422;28;859;-55
2021/11/23 02:52:20;;;;;;;;;;;;;;;21.29;50.83;101370.00;2067359;28;828;-57
2021/11/23 02:53:22;;;;;;;;;;;;;;;21.29;51.83;101361.00;2067349;28;848;-56
2021/11/23 02:54:22;;;;;;;;;;;;;;;21.29;51.67;101366.38;2067377;28;795;-55
2021/11/23 02:55:23;;;;;;;;;;;;;;;21.20;51.25;101374.75;2067382;28;990;-56
2021/11/23 02:56:24;;;;;;;;;;;;;;;21.25;50.88;101372.78;2067211;28;1407;-56
2021/11/23 02:57:25;;;;;;;;;;;;;;;21.25;51.64;101373.69;2066888;28;1360;-55
2021/11/23 02:58:26;;;;;;;;;;;;;;;21.23;51.64;101377.34;2067348;28;1005;-55
2021/11/23 02:59:27;;;;;;;;;;;;;;;21.16;53.47;101369.44;2067332;28;764;-56
2021/11/23 03:00:28;;;;;;;;;;;;;;;21.23;51.40;101374.66;2067330;28;862;-56
2021/11/23 03:01:29;;;;;;;;;;;;;;;21.25;50.47;101367.41;2067324;28;921;-56
2021/11/23 03:02:29;;;;;;;;;;;;;;;21.24;52.55;101373.72;2067395;28;923;-55
2021/11/23 03:03:29;;;;;;;;;;;;;;;21.23;51.25;101372.84;2067240;28;1918;-55
2021/11/23 03:04:29;;;;;;;;;;;;;;;21.21;52.50;101379.19;2067299;28;868;-56
2021/11/23 03:05:29;;;;;;;;;;;;;;;21.16;51.86;101376.63;2066343;28;994;-56
2021/11/23 03:06:30;;;;;;;;;;;;;;;21.18;52.25;101388.25;2066955;28;828;-55
2021/11/23 03:07:30;;;;;;;;;;;;;;;21.23;51.41;101388.13;2067272;28;1034;-55
2021/11/23 03:08:32;;;;;;;;;;;;;;;21.27;51.52;101387.09;2067164;28;843;-56
2021/11/23 03:09:32;;;;;;;;;;;;;;;21.23;51.51;101380.03;2067258;28;914;-56
2021/11/23 03:10:32;;;;;;;;;;;;;;;21.18;51.76;101385.56;2067094;28;808;-55
2021/11/23 03:11:32;;;;;;;;;;;;;;;21.17;50.59;101392.78;2067062;28;820;-55
2021/11/23 03:12:33;;;;;;;;;;;;;;;21.24;50.82;101384.50;2067175;28;1030;-56
2021/11/23 03:13:34;;;;;;;;;;;;;;;21.27;51.10;101387.09;2067165;28;804;-56
2021/11/23 03:14:34;;;;;;;;;;;;;;;21.29;50.95;101386.16;2067194;28;974;-56
2021/11/23 03:15:34;;;;;;;;;;;;;;;21.31;50.31;101394.19;2067246;28;776;-55
2021/11/23 03:16:34;;;;;;;;;;;;;;;21.23;51.03;101396.19;2067042;28;856;-55
2021/11/23 03:17:35;;;;;;;;;;;;;;;21.14;52.82;101395.56;2067252;28;978;-56
2021/11/23 03:18:35;;;;;;;;;;;;;;;21.13;51.81;101395.56;2066488;28;986;-55
2021/11/23 03:19:35;;;;;;;;;;;;;;;21.26;52.44;101401.50;2066707;28;870;-55
2021/11/23 03:20:39;;;;;;;;;;;;;;;21.23;50.98;101402.50;2067168;28;1025;-55
2021/11/23 03:21:39;;;;;;;;;;;;;;;21.28;50.47;101399.66;2066832;28;901;-56
2021/11/23 03:22:39;;;;;;;;;;;;;;;21.20;51.24;101393.63;2067188;28;832;-56
2021/11/23 03:23:39;;;;;;;;;;;;;;;21.18;51.46;101399.94;2067072;28;1968;-55
2021/11/23 03:24:40;;;;;;;;;;;;;;;21.16;52.19;101407.16;2067128;28;900;-56
2021/11/23 03:25:40;;;;;;;;;;;;;;;21.23;50.88;101401.59;2067125;28;862;-57
2021/11/23 03:26:41;;;;;;;;;;;;;;;21.27;51.21;101395.19;2066982;28;748;-56
2021/11/23 03:27:41;;;;;;;;;;;;;;;21.23;51.36;101401.59;2067015;28;862;-55
2021/11/23 03:28:41;;;;;;;;;;;;;;;21.22;51.16;101405.22;2067101;28;1033;-55
2021/11/23 03:29:41;;;;;;;;;;;;;;;21.14;53.01;101402.72;2066998;28;826;-55
2021/11/23 03:30:42;;;;;;;;;;;;;;;21.11;53.00;101408.19;2067122;28;978;-55
2021/11/23 03:31:42;;;;;;;;;;;;;;;21.09;52.87;101402.88;2067158;28;843;-55
2021/11/23 03:32:42;;;;;;;;;;;;;;;21.11;51.15;101403.72;2066831;28;1041;-56
2021/11/23 03:33:42;;;;;;;;;;;;;;;;;;2067012;28;1215;-56
2021/11/23 03:34:43;;;;;;;;;;;;;;;21.27;51.51;101398.78;2067027;28;1033;-55
2021/11/23 03:35:44;;;;;;;;;;;;;;;21.20;51.30;101407.09;2066998;28;855;-57
2021/11/23 03:36:44;;;;;;;;;;;;;;;21.15;52.01;101409.88;2067110;28;796;-55
2021/11/23 03:37:45;;;;;;;;;;;;;;;21.25;50.61;101411.41;2066983;28;990;-55
2021/11/23 03:38:45;;;;;;;;;;;;;;;21.29;49.66;101409.50;2072403;28;1613;-56
2021/11/23 03:39:46;;;;;;;;;;;;;;;;;;2075121;28;769;-56
2021/11/23 03:40:46;;;;;;;;;;;;;;;21.16;52.06;101415.25;2074838;28;803;-55
2021/11/23 03:41:46;;;;;;;;;;;;;;;21.16;52.24;101407.16;2075151;28;1037;-56
2021/11/23 03:42:46;;;;;;;;;;;;;;;21.14;51.48;101400.03;2075165;28;990;-55
2021/11/23 03:43:46;;;;;;;;;;;;;;;21.12;51.83;101407.28;2075047;28;1961;-56
2021/11/23 03:44:47;;;;;;;;;;;;;;;21.15;50.29;101407.19;2075117;28;979;-56
2021/11/23 03:45:47;;;;;;;;;;;;;;;21.16;52.17;101407.16;2075101;28;832;-55
2021/11/23 03:46:47;;;;;;;;;;;;;;;21.18;50.49;101405.31;2075143;28;1014;-55
2021/11/23 03:47:48;;;;;;;;;;;;;;;21.23;51.10;101409.66;2075145;28;823;-56
2021/11/23 03:48:48;;;;;;;;;;;;;;;21.12;51.82;101410.88;2075097;28;725;-56
2021/11/23 03:49:48;;;;;;;;;;;;;;;21.16;52.94;101409.88;2075135;28;1118;-55
2021/11/23 03:50:48;;;;;;;;;;;;;;;21.12;51.52;101410.88;2075036;28;1002;-55
2021/11/23 03:51:48;;;;;;;;;;;;;;;21.11;51.57;101410.91;2075161;28;843;-56
2021/11/23 03:52:49;;;;;;;;;;;;;;;21.08;52.48;101416.34;2075082;28;835;-56
2021/11/23 03:53:49;;;;;;;;;;;;;;;21.14;51.51;101419.78;2074880;28;1714;-56
2021/11/23 03:54:49;;;;;;;;;;;;;;;21.09;51.91;101413.66;2075048;28;963;-55
2021/11/23 03:55:50;;;;;;;;;;;;;;;21.13;52.10;101412.63;2075014;28;1006;-56
2021/11/23 03:56:51;;;;;;;;;;;;;;;21.14;51.31;101419.78;2074923;28;1050;-56
2021/11/23 03:57:52;;;;;;;;;;;;;;;21.16;51.38;101417.03;2075085;28;761;-56
2021/11/23 03:58:52;;;;;;;;;;;;;;;21.15;54.24;101421.56;2074859;28;850;-56
2021/11/23 03:59:53;;;;;;;;;;;;;;;21.13;52.39;101417.13;2075032;28;709;-56
2021/11/23 04:00:53;;;;;;;;;;;;;;;21.17;51.01;101427.78;2075013;28;776;-56
2021/11/23 04:01:53;;;;;;;;;;;;;;;21.17;50.67;101425.09;2074834;28;1010;-56
2021/11/23 04:02:54;;;;;;;;;;;;;;;21.17;52.87;101424.19;2075018;28;851;-56
2021/11/23 04:03:54;;;;;;;;;;;;;;;21.10;53.06;101428.88;2074874;28;1981;-55
2021/11/23 04:04:55;;;;;;;;;;;;;;;21.08;51.50;101430.72;2075047;28;1054;-56
2021/11/23 04:05:55;;;;;;;;;;;;;;;21.14;52.30;101419.78;2075032;28;781;-55
2021/11/23 04:06:57;;;;;;;;;;;;;;;21.16;51.44;101417.94;2074767;28;717;-55
2021/11/23 04:07:58;;;;;;;;;;;;;;;21.18;51.39;101426.88;2075048;28;807;-56
2021/11/23 04:08:58;;;;;;;;;;;;;;;21.12;51.57;101432.41;2075027;28;983;-56
2021/11/23 04:09:58;;;;;;;;;;;;;;;21.14;50.83;101427.88;2074933;28;847;-56
2021/11/23 04:10:58;;;;;;;;;;;;;;;21.17;51.40;101425.09;2074973;28;986;-56
2021/11/23 04:11:59;;;;;;;;;;;;;;;21.18;50.14;101413.41;2074812;28;982;-56
2021/11/23 04:12:59;;;;;;;;;;;;;;;21.13;50.91;101404.56;2075007;28;836;-56
2021/11/23 04:13:59;;;;;;;;;;;;;;;21.17;51.94;101398.16;2074929;28;934;-56
2021/11/23 04:14:59;;;;;;;;;;;;;;;;;;2074640;28;1301;-56
2021/11/23 04:15:59;;;;;;;;;;;;;;;21.23;50.76;101415.06;2074963;28;1018;-56
2021/11/23 04:16:59;;;;;;;;;;;;;;;21.26;51.10;101410.50;2074598;28;1030;-55
2021/11/23 04:18:00;;;;;;;;;;;;;;;21.13;51.66;101412.63;2074980;28;994;-56
2021/11/23 04:19:00;;;;;;;;;;;;;;;21.10;52.50;101410.03;2074924;28;978;-57
2021/11/23 04:20:00;;;;;;;;;;;;;;;21.20;50.90;101410.66;2074949;28;911;-56
2021/11/23 04:21:00;;;;;;;;;;;;;;;21.20;51.42;101410.66;2075027;28;788;-55
2021/11/23 04:22:01;;;;;;;;;;;;;;;21.24;50.92;101419.53;2074992;28;850;-55
2021/11/23 04:23:02;;;;;;;;;;;;;;;21.23;52.02;101412.38;2074802;28;1949;-56
2021/11/23 04:24:02;;;;;;;;;;;;;;;21.14;50.70;101408.13;2074851;28;846;-56
2021/11/23 04:25:03;;;;;;;;;;;;;;;21.17;51.74;101408.03;2074785;28;1041;-55
2021/11/23 04:26:04;;;;;;;;;;;;;;;21.17;50.93;101403.56;2074832;28;1353;-55
2021/11/23 04:27:04;;;;;;;;;;;;;;;21.19;51.53;101408.88;2074940;28;985;-55
2021/11/23 04:28:04;;;;;;;;;;;;;;;21.18;51.61;101413.41;2074788;28;906;-55
2021/11/23 04:29:04;;;;;;;;;;;;;;;21.07;52.04;101406.50;2075004;28;1431;-56
2021/11/23 04:30:06;;;;;;;;;;;;;;;21.15;52.55;101409.88;2074936;28;816;-56
2021/11/23 04:31:06;;;;;;;;;;;;;;;21.18;52.69;101413.41;2074838;28;827;-56
2021/11/23 04:32:06;;;;;;;;;;;;;;;;;;2074825;28;982;-56
2021/11/23 04:33:07;;;;;;;;;;;;;;;21.18;51.29;101416.09;2074970;28;811;-56
2021/11/23 04:34:08;;;;;;;;;;;;;;;21.11;51.57;101416.28;2074968;28;891;-55
2021/11/23 04:35:08;;;;;;;;;;;;;;;21.12;51.75;101416.25;2074899;28;970;-56
2021/11/23 04:36:08;;;;;;;;;;;;;;;21.12;51.44;101413.56;2074770;28;835;-56
2021/11/23 04:37:09;;;;;;;;;;;;;;;21.15;52.31;101415.28;2074866;28;791;-55
2021/11/23 04:38:09;;;;;;;;;;;;;;;21.22;50.78;101418.69;2074369;28;1454;-55
2021/11/23 04:39:11;;;;;;;;;;;;;;;;;;2066673;28;894;-56
2021/11/23 04:40:13;;;;;;;;;;;;;;;21.23;51.04;101428.53;2066754;28;851;-55
2021/11/23 04:41:13;;;;;;;;;;;;;;;21.25;50.54;101422.19;2066812;28;807;-56
2021/11/23 04:42:13;;;;;;;;;;;;;;;21.26;50.41;101423.97;2066716;28;910;-55
2021/11/23 04:43:13;;;;;;;;;;;;;;;21.31;50.19;101423.81;2066720;28;1895;-56
2021/11/23 04:44:14;;;;;;;;;;;;;;;21.17;52.26;101419.72;2066661;28;990;-56
2021/11/23 04:45:14;;;;;;;;;;;;;;;21.11;51.66;101430.66;2066453;28;788;-55
2021/11/23 04:46:14;;;;;;;;;;;;;;;21.06;53.03;101429.88;2066740;28;816;-56
2021/11/23 04:47:14;;;;;;;;;;;;;;;21.15;51.86;101421.56;2066778;28;803;-55
2021/11/23 04:48:15;;;;;;;;;;;;;;;21.15;51.77;101426.97;2066711;28;849;-55
2021/11/23 04:49:15;;;;;;;;;;;;;;;21.00;52.48;101427.34;2066800;28;839;-56
2021/11/23 04:50:16;;;;;;;;;;;;;;;21.08;51.18;101429.81;2066753;28;852;-56
2021/11/23 04:51:16;;;;;;;;;;;;;;;21.11;51.74;101429.75;2066835;28;855;-56
2021/11/23 04:52:16;;;;;;;;;;;;;;;21.22;50.85;101432.16;2066665;28;804;-55
2021/11/23 04:53:16;;;;;;;;;;;;;;;21.17;53.18;101437.69;2066713;28;1045;-56
2021/11/23 04:54:16;;;;;;;;;;;;;;;21.13;51.25;101438.69;2066693;28;856;-55
2021/11/23 04:55:17;;;;;;;;;;;;;;;21.22;50.98;101433.06;2066691;28;1049;-55
2021/11/23 04:56:17;;;;;;;;;;;;;;;21.11;51.82;101446.81;2066695;28;788;-56
2021/11/23 04:57:17;;;;;;;;;;;;;;;21.17;50.83;101441.28;2066654;28;1047;-56
2021/11/23 04:58:18;;;;;;;;;;;;;;;21.16;51.38;101444.00;2066706;28;990;-56
2021/11/23 04:59:19;;;;;;;;;;;;;;;21.12;51.48;101445.88;2066796;28;1372;-56
2021/11/23 05:00:19;;;;;;;;;;;;;;;21.05;52.37;101444.28;2066739;28;818;-56
2021/11/23 05:01:20;;;;;;;;;;;;;;;21.16;50.40;101447.59;2066707;28;879;-56
2021/11/23 05:02:20;;;;;;;;;;;;;;;21.08;52.80;101443.31;2066690;28;832;-57
2021/11/23 05:03:20;;;;;;;;;;;;;;;21.05;52.51;101446.06;2066697;28;1983;-55
2021/11/23 05:04:21;;;;;;;;;;;;;;;21.06;51.98;101451.44;2066688;28;756;-56
2021/11/23 05:05:21;;;;;;;;;;;;;;;21.59;51.45;101436.53;2066595;28;1008;-55
2021/11/23 05:06:21;;;;;;;;;;;;;;;22.00;49.71;101425.50;2066524;28;794;-57
2021/11/23 05:07:22;;;;;;;;;;;;;;;22.22;51.24;101433.81;2066686;28;860;-55
2021/11/23 05:08:22;;;;;;;;;;;;;;;22.31;48.70;101432.66;2066701;28;790;-55
2021/11/23 05:09:22;;;;;;;;;;;;;;;22.39;48.84;101443.19;2066661;28;824;-55
2021/11/23 05:10:22;;;;;;;;;;;;;;;22.48;48.78;101435.72;2066679;28;896;-55
2021/11/23 05:11:26;;;;;;;;;;;;;;;22.57;50.31;101439.94;2066514;28;1398;-55
2021/11/23 05:12:26;;;;;;;;;;;;;;;22.62;50.36;101442.50;2066683;28;882;-55
2021/11/23 05:13:27;;;;;;;;;;;;;;;22.75;49.55;101446.53;2066332;28;1003;-55
2021/11/23 05:14:27;;;;;;;;;;;;;;;22.79;49.77;101444.66;2066659;28;903;-55
2021/11/23 05:15:27;;;;;;;;;;;;;;;22.83;48.85;101437.31;2066673;28;769;-56
2021/11/23 05:16:27;;;;;;;;;;;;;;;22.90;50.23;101445.19;2066625;28;920;-56
2021/11/23 05:17:27;;;;;;;;;;;;;;;22.96;47.73;101441.38;2066658;28;958;-56
2021/11/23 05:18:28;;;;;;;;;;;;;;;23.03;48.71;101439.31;2066625;28;781;-56
2021/11/23 05:19:28;;;;;;;;;;;;;;;23.10;47.98;101438.19;2066376;28;1358;-55